Time;durP1;ratioP1;P1;durP2;ratioP2;P2;SDS_P1;SDS_P2;PMS_P1;PMS_P2;Temp;Humidity;BMP_temperature;BMP_pressure;BME280_temperature;BME280_humidity;BME280_pressure;Samples;Min_cycle;Max_cycle;Signal;HPM_P1;HPM_P2
2023/01/05 00:00:06;;;;;;;12.68;4.57;;;11.70;99.90;;;;;;5051666;28;20111;-45
2023/01/05 00:02:52;;;;;;;12.63;3.70;;;11.60;99.90;;;;;;5051156;28;20078;-54
2023/01/05 00:05:38;;;;;;;13.40;3.55;;;11.50;99.90;;;;;;5050817;28;20033;-49
2023/01/05 00:08:24;;;;;;;10.30;3.60;;;11.20;99.90;;;;;;5051279;28;20118;-53
2023/01/05 00:23:40;;;;;;;15.48;4.85;;;10.40;99.90;;;;;;5054751;28;20390;-49
2023/01/05 00:26:30;;;;;;;11.60;3.80;;;10.50;99.90;;;;;;5053377;28;20109;-51
2023/01/05 00:29:19;;;;;;;9.35;3.55;;;10.60;99.90;;;;;;5054819;28;20515;-48
2023/01/05 00:32:05;;;;;;;9.90;3.58;;;10.60;99.90;;;;;;5054435;28;20064;-52
2023/01/05 00:34:57;;;;;;;14.88;4.20;;;10.60;99.90;;;;;;5039695;28;20029;-52
2023/01/05 00:37:44;;;;;;;15.20;4.60;;;10.50;99.90;;;;;;5051537;28;20075;-51
2023/01/05 00:40:30;;;;;;;11.15;3.55;;;10.40;99.90;;;;;;5053160;28;20035;-45
2023/01/05 00:43:16;;;;;;;9.27;3.70;;;10.50;99.90;;;;;;5054628;28;20409;-45
2023/01/05 00:46:06;;;;;;;14.82;3.67;;;10.50;99.90;;;;;;5038961;28;20378;-46
2023/01/05 00:48:53;;;;;;;9.82;3.80;;;10.60;99.90;;;;;;5053317;28;20036;-44
2023/01/05 00:51:39;;;;;;;10.43;3.97;;;10.50;99.90;;;;;;5040460;28;20033;-44
2023/01/05 00:54:25;;;;;;;13.30;3.90;;;10.60;99.90;;;;;;5053320;28;20029;-45
2023/01/05 00:57:13;;;;;;;11.35;4.40;;;10.60;99.90;;;;;;5054288;28;20029;-51
2023/01/05 01:00:00;;;;;;;14.15;4.35;;;10.60;99.90;;;;;;5053153;28;20029;-45
2023/01/05 01:02:50;;;;;;;12.20;4.40;;;10.70;99.90;;;;;;5054814;28;20082;-48
2023/01/05 01:05:39;;;;;;;10.93;3.88;;;10.70;99.90;;;;;;5054436;28;20033;-56
2023/01/05 01:08:25;;;;;;;9.30;3.45;;;10.70;99.90;;;;;;5053291;28;20052;-45
2023/01/05 01:11:11;;;;;;;12.35;4.78;;;10.70;99.90;;;;;;5054802;28;20092;-44
2023/01/05 01:13:57;;;;;;;12.43;3.47;;;10.80;99.90;;;;;;5052848;28;20036;-46
2023/01/05 01:16:44;;;;;;;11.38;4.00;;;11.00;99.90;;;;;;5053862;28;20037;-44
2023/01/05 01:19:30;;;;;;;9.70;3.22;;;11.10;99.90;;;;;;5052108;28;20027;-50
2023/01/05 01:22:16;;;;;;;8.48;3.70;;;11.10;99.90;;;;;;5052713;28;20060;-50
2023/01/05 01:25:03;;;;;;;11.05;3.30;;;11.10;99.90;;;;;;5038474;28;20022;-51
2023/01/05 01:27:49;;;;;;;10.32;3.60;;;11.10;99.90;;;;;;5052855;28;20045;-48
2023/01/05 01:30:38;;;;;;;10.32;3.50;;;11.20;99.90;;;;;;5053456;28;20057;-49
2023/01/05 01:33:25;;;;;;;13.13;4.07;;;11.20;99.90;;;;;;5053839;28;20049;-48
2023/01/05 01:36:11;;;;;;;6.63;2.83;;;11.20;99.90;;;;;;5054197;28;20128;-48
2023/01/05 01:39:00;;;;;;;7.47;2.97;;;11.10;99.90;;;;;;5054256;28;20454;-49
2023/01/05 01:41:46;;;;;;;7.60;2.45;;;11.20;99.90;;;;;;5054333;28;20044;-48
2023/01/05 01:44:57;;;;;;;6.90;2.58;;;11.10;99.90;;;;;;5053935;28;20104;-48
2023/01/05 01:47:46;;;;;;;5.10;2.40;;;11.10;99.90;;;;;;5050662;28;20017;-51
2023/01/05 01:50:43;;;;;;;7.60;3.45;;;11.10;99.90;;;;;;5049667;28;20032;-51
2023/01/05 01:53:39;;;;;;;8.35;2.63;;;11.00;99.90;;;;;;5049617;28;20025;-52
2023/01/05 01:56:32;;;;;;;9.80;3.03;;;10.90;99.90;;;;;;5050974;28;20489;-48
2023/01/05 01:59:18;;;;;;;8.88;2.90;;;10.90;99.90;;;;;;5050477;28;20071;-47
2023/01/05 02:02:06;;;;;;;11.25;3.53;;;10.90;99.90;;;;;;5050241;28;20082;-48
2023/01/05 02:04:55;;;;;;;10.85;3.53;;;10.90;99.90;;;;;;5053174;28;20029;-47
2023/01/05 02:07:46;;;;;;;11.13;3.45;;;10.90;99.90;;;;;;5054111;28;20405;-47
2023/01/05 02:10:38;;;;;;;11.07;3.28;;;10.80;99.90;;;;;;5052877;28;20074;-49
2023/01/05 02:13:36;;;;;;;9.70;3.97;;;10.90;99.90;;;;;;5052699;28;20017;-51
2023/01/05 02:16:45;;;;;;;11.50;3.75;;;10.90;99.90;;;;;;5052839;28;20018;-49
2023/01/05 02:20:02;;;;;;;13.88;3.95;;;10.80;99.90;;;;;;5054011;28;20100;-48
2023/01/05 02:23:09;;;;;;;9.00;3.60;;;10.80;99.90;;;;;;5052499;28;20025;-49
2023/01/05 02:26:01;;;;;;;11.68;4.32;;;10.90;99.90;;;;;;5053067;28;20552;-47
2023/01/05 02:29:02;;;;;;;11.30;3.72;;;10.90;99.90;;;;;;5052718;28;20029;-51
2023/01/05 02:32:03;;;;;;;12.18;3.58;;;10.80;99.90;;;;;;5053375;28;20072;-48
2023/01/05 02:35:01;;;;;;;14.52;4.50;;;10.80;99.90;;;;;;5053497;28;20029;-47
2023/01/05 02:38:12;;;;;;;12.63;3.72;;;10.80;99.90;;;;;;5052370;28;20439;-47
2023/01/05 02:41:06;;;;;;;14.15;3.65;;;10.90;99.90;;;;;;5052413;28;20083;-48
2023/01/05 02:43:55;;;;;;;11.23;3.83;;;11.00;99.90;;;;;;5053422;28;20150;-51
2023/01/05 02:46:41;;;;;;;11.18;3.80;;;10.90;99.90;;;;;;5052755;28;20040;-50
2023/01/05 02:49:28;;;;;;;12.27;3.53;;;11.10;99.90;;;;;;5052071;28;20032;-48
2023/01/05 02:52:15;;;;;;;11.13;4.20;;;11.10;99.90;;;;;;5053159;28;20021;-48
2023/01/05 02:55:06;;;;;;;11.00;4.13;;;11.00;99.90;;;;;;5051626;28;20490;-50
2023/01/05 02:58:01;;;;;;;7.65;3.13;;;11.10;99.90;;;;;;5052514;28;20029;-49
2023/01/05 03:01:11;;;;;;;10.63;3.73;;;11.00;99.90;;;;;;5053731;28;20064;-47
2023/01/05 03:04:21;;;;;;;13.32;4.22;;;11.00;99.90;;;;;;5053897;28;20290;-46
2023/01/05 03:07:15;;;;;;;11.98;4.10;;;10.90;99.90;;;;;;5051802;28;20047;-50
2023/01/05 03:13:39;;;;;;;13.93;3.75;;;10.80;99.90;;;;;;5051616;28;20025;-52
2023/01/05 03:16:20;;;;;;;11.45;4.68;;;10.80;99.90;;;;;;5052285;28;20049;-46
2023/01/05 03:35:29;;;;;;;9.85;4.43;;;10.60;99.90;;;;;;5051819;28;20025;-50
2023/01/05 03:38:37;;;;;;;12.95;4.38;;;10.60;99.90;;;;;;5052789;28;20021;-47
2023/01/05 03:41:25;;;;;;;14.20;4.93;;;10.70;99.90;;;;;;5051491;28;20029;-48
2023/01/05 03:44:12;;;;;;;12.23;4.28;;;10.70;99.90;;;;;;5052987;28;20025;-49
2023/01/05 03:46:58;;;;;;;11.52;4.80;;;10.80;99.90;;;;;;5051187;28;20029;-51
2023/01/05 03:49:44;;;;;;;13.95;4.18;;;10.80;99.90;;;;;;5051240;28;20021;-50
2023/01/05 03:52:30;;;;;;;13.02;4.32;;;10.80;99.90;;;;;;5051020;28;20512;-48
2023/01/05 03:55:16;;;;;;;14.30;4.35;;;10.80;99.90;;;;;;5050920;28;20025;-47
2023/01/05 03:58:02;;;;;;;11.98;4.80;;;10.80;99.90;;;;;;5051068;28;20036;-47
2023/01/05 04:00:48;;;;;;;11.63;4.40;;;10.80;99.90;;;;;;5051618;28;20542;-50
2023/01/05 04:03:34;;;;;;;12.35;4.40;;;10.70;99.90;;;;;;5051677;28;20116;-51
2023/01/05 04:06:20;;;;;;;11.20;4.85;;;10.60;99.90;;;;;;5051556;28;20025;-53
2023/01/05 04:09:06;;;;;;;12.32;4.28;;;10.60;99.90;;;;;;5050340;28;20023;-48
2023/01/05 04:11:52;;;;;;;11.13;4.53;;;10.60;99.90;;;;;;5051632;28;20037;-51
2023/01/05 04:14:37;;;;;;;13.18;4.70;;;10.60;99.90;;;;;;5050563;28;20397;-48
2023/01/05 04:17:23;;;;;;;13.98;5.03;;;10.50;99.90;;;;;;5051048;28;20029;-53
2023/01/05 04:20:10;;;;;;;17.55;5.63;;;10.40;99.90;;;;;;5050407;28;20039;-53
2023/01/05 04:22:56;;;;;;;14.85;4.53;;;10.30;99.90;;;;;;5050971;28;20029;-47
2023/01/05 04:25:42;;;;;;;14.18;4.30;;;10.20;99.90;;;;;;5049873;28;20059;-49
2023/01/05 04:28:28;;;;;;;11.60;4.78;;;10.30;99.90;;;;;;5050324;28;20029;-51
2023/01/05 04:31:14;;;;;;;15.07;5.15;;;10.30;99.90;;;;;;5050102;28;20052;-48
2023/01/05 04:33:59;;;;;;;11.77;4.32;;;10.30;99.90;;;;;;5051828;28;20382;-50
2023/01/05 04:36:46;;;;;;;13.80;5.40;;;10.20;99.90;;;;;;5050266;28;20508;-52
2023/01/05 04:39:32;;;;;;;14.07;5.15;;;10.20;99.90;;;;;;5050869;28;20112;-45
2023/01/05 04:42:18;;;;;;;12.68;4.60;;;10.30;99.90;;;;;;5050509;28;20033;-50
2023/01/05 04:45:04;;;;;;;17.67;4.88;;;10.30;99.90;;;;;;5051363;28;20021;-47
2023/01/05 04:47:51;;;;;;;13.77;5.40;;;10.30;99.90;;;;;;5051309;28;20098;-45
2023/01/05 04:50:37;;;;;;;15.57;5.20;;;10.40;99.90;;;;;;5052053;28;20021;-49
2023/01/05 04:53:23;;;;;;;10.43;4.50;;;10.40;99.90;;;;;;5060047;28;20052;-46
2023/01/05 04:56:09;;;;;;;15.32;5.50;;;10.40;99.90;;;;;;5059614;28;20021;-57
2023/01/05 04:58:55;;;;;;;22.02;5.88;;;10.40;99.90;;;;;;5054817;28;20048;-46
2023/01/05 05:01:41;;;;;;;13.10;4.93;;;10.40;99.90;;;;;;5051014;28;20071;-44
2023/01/05 05:04:27;;;;;;;14.90;5.43;;;10.50;99.90;;;;;;5050112;28;20029;-46
2023/01/05 05:07:13;;;;;;;12.02;4.75;;;10.50;99.90;;;;;;5049745;28;20025;-50
2023/01/05 05:09:59;;;;;;;13.48;5.40;;;10.50;99.90;;;;;;5050126;28;20032;-51
2023/01/05 05:12:45;;;;;;;14.80;4.95;;;10.50;99.90;;;;;;5050453;28;20025;-51
2023/01/05 05:15:31;;;;;;;13.70;5.32;;;10.50;99.90;;;;;;5050078;28;20033;-53
2023/01/05 05:18:17;;;;;;;19.77;5.45;;;10.50;99.90;;;;;;5049355;28;20112;-50
2023/01/05 05:21:03;;;;;;;14.80;4.80;;;10.40;99.90;;;;;;5051770;28;20033;-49
2023/01/05 05:23:48;;;;;;;11.90;4.57;;;10.40;99.90;;;;;;5049850;28;20036;-49
2023/01/05 05:26:34;;;;;;;18.88;5.07;;;10.40;99.90;;;;;;5050418;28;20021;-50
2023/01/05 05:29:20;;;;;;;14.40;5.25;;;10.40;99.90;;;;;;5051279;28;20025;-53
2023/01/05 05:32:06;;;;;;;12.43;4.80;;;10.40;99.90;;;;;;5049783;28;20048;-48
2023/01/05 05:34:52;;;;;;;14.10;4.65;;;10.40;99.90;;;;;;5049819;28;20574;-52
2023/01/05 05:37:38;;;;;;;12.52;4.50;;;10.40;99.90;;;;;;5050366;28;20033;-45
2023/01/05 05:40:25;;;;;;;9.65;4.60;;;10.40;99.90;;;;;;5053596;28;20067;-48
2023/01/05 05:43:11;;;;;;;17.45;5.70;;;10.40;99.90;;;;;;5054605;28;20025;-45
2023/01/05 05:45:56;;;;;;;15.68;4.80;;;10.40;99.90;;;;;;5054711;28;20029;-45
2023/01/05 05:48:42;;;;;;;17.52;4.75;;;10.40;99.90;;;;;;5053535;28;20029;-45
2023/01/05 05:51:28;;;;;;;11.30;4.95;;;10.40;99.90;;;;;;5053678;28;20124;-46
2023/01/05 05:54:14;;;;;;;14.48;4.55;;;10.40;99.90;;;;;;5053370;28;20533;-44
2023/01/05 05:57:00;;;;;;;13.52;4.47;;;10.40;99.90;;;;;;5054574;28;20075;-47
2023/01/05 05:59:46;;;;;;;14.15;4.88;;;10.30;99.90;;;;;;5053111;28;20128;-50
2023/01/05 06:02:32;;;;;;;13.25;5.13;;;10.30;99.90;;;;;;5052858;28;20021;-47
2023/01/05 06:05:18;;;;;;;16.45;5.90;;;10.30;99.90;;;;;;5052887;28;20145;-52
2023/01/05 06:08:04;;;;;;;16.65;8.77;;;10.30;99.90;;;;;;5053865;28;20025;-44
2023/01/05 06:10:50;;;;;;;12.18;5.63;;;10.30;99.90;;;;;;5053288;28;20032;-46
2023/01/05 06:13:36;;;;;;;14.68;4.63;;;10.20;99.90;;;;;;5052631;28;20033;-55
2023/01/05 06:16:22;;;;;;;14.82;4.72;;;10.20;99.90;;;;;;5052547;28;20021;-57
2023/01/05 06:19:08;;;;;;;14.38;5.18;;;10.20;99.90;;;;;;5052650;28;20036;-50
2023/01/05 06:21:54;;;;;;;11.13;3.80;;;10.40;99.90;;;;;;5053865;28;20029;-56
2023/01/05 06:24:40;;;;;;;12.68;4.93;;;10.40;99.90;;;;;;5053539;28;20032;-50
2023/01/05 06:27:26;;;;;;;11.63;4.07;;;10.30;99.90;;;;;;5052103;28;20027;-53
2023/01/05 06:30:12;;;;;;;10.65;3.90;;;10.30;99.90;;;;;;5052378;28;20022;-52
2023/01/05 06:32:58;;;;;;;14.48;4.05;;;10.30;99.90;;;;;;5052310;28;20037;-55
2023/01/05 06:35:44;;;;;;;12.82;4.60;;;10.30;99.90;;;;;;5052269;28;20029;-54
2023/01/05 06:38:30;;;;;;;12.65;4.25;;;10.20;99.90;;;;;;5052235;28;20035;-52
2023/01/05 06:41:16;;;;;;;14.38;4.57;;;10.20;99.90;;;;;;5053549;28;20052;-51
2023/01/05 06:44:02;;;;;;;13.45;4.55;;;10.00;99.90;;;;;;5052030;28;20036;-55
2023/01/05 06:46:48;;;;;;;14.10;5.10;;;10.10;99.90;;;;;;5051756;28;20507;-56
2023/01/05 06:49:34;;;;;;;16.23;4.65;;;10.20;99.90;;;;;;5051552;28;20030;-54
2023/01/05 06:52:20;;;;;;;10.65;4.03;;;10.20;99.90;;;;;;5051926;28;20075;-56
2023/01/05 06:55:11;;;;;;;8.90;4.68;;;10.20;99.90;;;;;;5051981;28;20108;-55
2023/01/05 06:57:57;;;;;;;11.82;4.35;;;10.20;99.90;;;;;;5052007;28;20033;-58
2023/01/05 07:00:43;;;;;;;13.60;4.20;;;10.20;99.90;;;;;;5052430;28;20025;-57
2023/01/05 07:03:29;;;;;;;15.50;4.65;;;10.20;99.90;;;;;;5051791;28;20033;-50
2023/01/05 07:06:15;;;;;;;10.15;4.10;;;10.20;99.90;;;;;;5051975;28;20025;-49
2023/01/05 07:09:01;;;;;;;11.93;4.03;;;10.30;99.90;;;;;;5051520;28;20033;-53
2023/01/05 07:11:47;;;;;;;13.02;4.88;;;10.30;99.90;;;;;;5051435;28;20013;-51
2023/01/05 07:14:33;;;;;;;15.05;5.32;;;10.30;99.90;;;;;;5052487;28;20515;-55
2023/01/05 07:17:19;;;;;;;12.73;5.40;;;10.30;99.90;;;;;;5051376;28;20041;-51
2023/01/05 07:20:06;;;;;;;13.25;5.15;;;10.30;99.90;;;;;;5052528;28;20108;-55
2023/01/05 07:22:52;;;;;;;13.20;4.50;;;10.20;99.90;;;;;;5051429;28;20021;-52
2023/01/05 07:25:38;;;;;;;11.73;4.82;;;10.20;99.90;;;;;;5051210;28;20061;-54
2023/01/05 07:28:24;;;;;;;15.60;5.13;;;10.30;99.90;;;;;;5051464;28;20045;-55
2023/01/05 07:31:10;;;;;;;9.88;4.53;;;10.30;99.90;;;;;;5051055;28;20069;-54
2023/01/05 07:33:56;;;;;;;9.38;4.35;;;10.30;99.90;;;;;;5052596;28;20057;-55
2023/01/05 07:36:42;;;;;;;9.45;4.35;;;10.30;99.90;;;;;;5050832;28;20032;-55
2023/01/05 07:39:28;;;;;;;15.40;5.03;;;10.30;99.90;;;;;;5051025;28;20168;-55
2023/01/05 07:42:14;;;;;;;13.43;5.53;;;10.40;99.90;;;;;;5051425;28;20111;-54
2023/01/05 07:45:00;;;;;;;12.73;5.18;;;10.40;99.90;;;;;;5050779;28;20044;-55
2023/01/05 07:47:46;;;;;;;16.02;6.07;;;10.30;99.90;;;;;;5051818;28;20025;-50
2023/01/05 07:50:32;;;;;;;12.50;4.35;;;10.40;99.90;;;;;;5050851;28;20021;-53
2023/01/05 07:53:18;;;;;;;11.40;4.63;;;10.40;99.90;;;;;;5051402;28;20022;-54
2023/01/05 07:56:06;;;;;;;13.73;5.40;;;10.30;99.90;;;;;;5050656;28;20035;-54
2023/01/05 07:58:52;;;;;;;11.15;4.53;;;10.30;99.90;;;;;;5050423;28;20037;-57
2023/01/05 08:01:38;;;;;;;16.88;4.90;;;10.30;99.90;;;;;;5050959;28;20025;-56
2023/01/05 08:04:24;;;;;;;17.73;5.50;;;10.40;99.90;;;;;;5050626;28;20556;-55
2023/01/05 08:07:10;;;;;;;14.13;5.25;;;10.30;99.90;;;;;;5052110;28;20060;-54
2023/01/05 08:16:09;;;;;;;12.98;4.20;;;10.30;99.90;;;;;;5050863;28;20033;-54
2023/01/05 08:18:55;;;;;;;14.38;5.07;;;10.40;99.90;;;;;;5050973;28;20060;-55
2023/01/05 08:21:41;;;;;;;11.18;4.47;;;10.40;99.90;;;;;;5050282;28;20032;-57
2023/01/05 08:24:27;;;;;;;15.63;4.68;;;10.30;99.90;;;;;;5049998;28;20029;-57
2023/01/05 08:27:13;;;;;;;10.88;4.50;;;10.30;99.90;;;;;;5050103;28;20079;-55
2023/01/05 08:29:59;;;;;;;14.77;4.63;;;10.30;99.90;;;;;;5050298;28;20082;-54
2023/01/05 08:32:45;;;;;;;11.18;4.25;;;10.40;99.90;;;;;;5050528;28;20033;-50
2023/01/05 08:35:31;;;;;;;11.35;4.43;;;10.40;99.90;;;;;;5050043;28;20025;-55
2023/01/05 08:38:19;;;;;;;12.50;3.95;;;10.30;99.90;;;;;;5051585;28;20491;-55
2023/01/05 08:41:05;;;;;;;9.02;3.78;;;10.30;99.90;;;;;;5050754;28;20033;-53
2023/01/05 08:43:57;;;;;;;10.00;3.97;;;10.30;99.90;;;;;;5051842;28;20380;-54
2023/01/05 08:46:43;;;;;;;13.10;5.43;;;10.30;99.90;;;;;;5054066;28;20108;-49
2023/01/05 08:49:31;;;;;;;12.93;3.97;;;10.20;99.90;;;;;;5051465;28;20104;-52
2023/01/05 08:52:17;;;;;;;10.70;4.32;;;10.20;99.90;;;;;;5051417;28;20025;-53
2023/01/05 08:55:05;;;;;;;11.27;4.50;;;10.20;99.90;;;;;;5050521;28;20057;-50
2023/01/05 08:57:51;;;;;;;10.52;4.60;;;10.10;99.90;;;;;;5051404;28;20197;-55
2023/01/05 09:00:37;;;;;;;10.90;4.43;;;10.10;99.90;;;;;;5049786;28;20044;-52
2023/01/05 09:03:23;;;;;;;10.10;4.35;;;10.10;99.90;;;;;;5050000;28;20041;-54
2023/01/05 09:06:10;;;;;;;13.35;4.60;;;10.20;99.90;;;;;;5049943;28;20044;-52
2023/01/05 09:08:56;;;;;;;19.42;4.70;;;10.20;99.90;;;;;;5050797;28;20075;-51
2023/01/05 09:11:42;;;;;;;18.17;4.45;;;10.10;99.90;;;;;;5051557;28;20021;-51
2023/01/05 09:14:28;;;;;;;12.85;4.20;;;10.20;99.90;;;;;;5054005;28;20497;-47
2023/01/05 09:17:14;;;;;;;10.68;3.72;;;10.20;99.90;;;;;;5053787;28;20562;-50
2023/01/05 09:20:02;;;;;;;10.50;3.85;;;10.20;99.90;;;;;;5054989;28;20033;-49
2023/01/05 09:22:48;;;;;;;8.43;4.30;;;10.30;99.90;;;;;;5053772;28;20029;-50
2023/01/05 09:25:34;;;;;;;8.82;3.60;;;10.30;99.90;;;;;;5054770;28;20029;-48
2023/01/05 09:28:20;;;;;;;12.85;5.65;;;10.30;99.90;;;;;;5054301;28;20562;-51
2023/01/05 09:31:20;;;;;;;13.70;4.18;;;10.50;99.90;;;;;;5053173;28;20555;-51
2023/01/05 09:34:06;;;;;;;16.58;5.25;;;10.50;99.90;;;;;;5053582;28;20159;-52
2023/01/05 09:36:52;;;;;;;11.40;4.43;;;10.50;99.90;;;;;;5053107;28;20025;-50
2023/01/05 09:39:38;;;;;;;12.35;5.60;;;10.50;99.90;;;;;;5053470;28;20497;-52
2023/01/05 09:42:29;;;;;;;10.68;3.85;;;10.60;99.90;;;;;;5053495;28;20385;-49
2023/01/05 09:45:24;;;;;;;7.53;3.50;;;10.60;99.90;;;;;;5053324;28;20032;-49
2023/01/05 09:48:13;;;;;;;6.30;3.75;;;10.40;99.90;;;;;;5054929;28;20017;-51
2023/01/05 09:50:59;;;;;;;12.15;3.90;;;10.40;99.90;;;;;;5053304;28;20029;-51
2023/01/05 09:53:45;;;;;;;6.40;3.55;;;10.40;99.90;;;;;;5053138;28;20056;-48
2023/01/05 09:56:38;;;;;;;8.95;4.05;;;10.50;99.90;;;;;;5052946;28;20025;-52
2023/01/05 09:59:36;;;;;;;10.32;3.55;;;10.50;99.90;;;;;;5054103;28;20036;-49
2023/01/05 10:02:49;;;;;;;9.25;3.80;;;10.40;99.90;;;;;;5054342;28;20504;-48
2023/01/05 10:05:40;;;;;;;11.98;3.88;;;10.50;99.90;;;;;;5054492;28;20055;-53
2023/01/05 10:08:36;;;;;;;9.77;3.40;;;10.50;99.90;;;;;;5053101;28;20426;-50
2023/01/05 10:14:54;;;;;;;9.90;3.60;;;10.40;99.90;;;;;;5053546;28;20118;-47
2023/01/05 10:17:41;;;;;;;7.22;3.65;;;10.40;99.90;;;;;;5052705;28;20032;-52
2023/01/05 10:20:50;;;;;;;8.23;3.80;;;10.40;99.90;;;;;;5052422;28;20508;-49
2023/01/05 10:23:41;;;;;;;9.32;3.85;;;10.60;99.90;;;;;;5055271;28;20025;-52
2023/01/05 10:26:43;;;;;;;11.50;3.88;;;10.60;99.90;;;;;;5054483;28;20025;-51
2023/01/05 10:29:38;;;;;;;9.50;4.53;;;10.70;99.90;;;;;;5054507;28;20029;-49
2023/01/05 10:32:34;;;;;;;11.75;4.80;;;10.60;99.90;;;;;;5053829;28;20025;-52
2023/01/05 10:35:40;;;;;;;9.02;3.90;;;10.80;99.90;;;;;;5053691;28;20033;-50
2023/01/05 10:38:38;;;;;;;8.75;4.13;;;10.90;99.90;;;;;;5052745;28;20519;-51
2023/01/05 10:41:50;;;;;;;7.97;3.50;;;10.90;99.90;;;;;;5053240;28;20047;-54
2023/01/05 10:44:51;;;;;;;8.57;3.75;;;10.90;99.90;;;;;;5052738;28;20365;-52
2023/01/05 10:47:39;;;;;;;7.88;3.65;;;11.00;99.90;;;;;;5053062;28;20448;-50
2023/01/05 10:50:27;;;;;;;8.25;4.28;;;11.10;99.90;;;;;;5053265;28;20020;-48
2023/01/05 10:53:24;;;;;;;10.15;4.00;;;11.10;99.90;;;;;;5051251;28;20017;-50
2023/01/05 10:56:21;;;;;;;8.07;3.30;;;11.10;99.90;;;;;;5053020;28;20051;-55
2023/01/05 10:59:14;;;;;;;7.13;3.60;;;11.10;99.90;;;;;;5052773;28;20036;-52
2023/01/05 11:02:00;;;;;;;6.47;3.40;;;11.00;99.90;;;;;;5051045;28;20033;-53
2023/01/05 11:04:48;;;;;;;8.38;3.60;;;10.90;99.90;;;;;;5052848;28;20154;-48
2023/01/05 11:07:53;;;;;;;7.40;3.20;;;10.90;99.90;;;;;;5051930;28;20470;-50
2023/01/05 11:10:54;;;;;;;8.23;3.97;;;10.90;99.90;;;;;;5052269;28;20025;-50
2023/01/05 11:13:45;;;;;;;6.20;3.75;;;10.80;99.90;;;;;;5051276;28;20063;-52
2023/01/05 11:16:34;;;;;;;7.28;3.78;;;10.80;99.90;;;;;;5051367;28;20024;-52
2023/01/05 11:19:29;;;;;;;7.72;4.00;;;10.70;99.90;;;;;;5052244;28;20025;-48
2023/01/05 11:22:27;;;;;;;;;;;10.80;99.90;;;;;;5051757;28;20025;-49
2023/01/05 11:25:21;;;;;;;4.78;2.90;;;10.70;99.90;;;;;;5052535;28;20380;-53
2023/01/05 11:28:15;;;;;;;7.72;3.92;;;10.80;99.90;;;;;;5051076;28;20075;-51
2023/01/05 11:31:04;;;;;;;9.05;3.95;;;10.50;99.90;;;;;;5052880;28;20413;-50
2023/01/05 11:33:57;;;;;;;8.32;3.35;;;10.60;99.90;;;;;;5050942;28;20021;-50
2023/01/05 11:36:51;;;;;;;8.82;3.58;;;10.60;99.90;;;;;;5051104;28;20079;-51
2023/01/05 11:39:39;;;;;;;5.88;3.00;;;10.50;99.90;;;;;;5052316;28;20525;-50
2023/01/05 11:42:25;;;;;;;6.07;3.42;;;10.50;99.90;;;;;;5051353;28;20503;-53
2023/01/05 11:45:23;;;;;;;8.13;3.78;;;10.60;99.90;;;;;;5053121;28;20476;-48
2023/01/05 11:48:18;;;;;;;10.15;4.05;;;10.60;99.90;;;;;;5050732;28;20040;-47
2023/01/05 11:51:04;;;;;;;7.88;4.03;;;10.50;99.90;;;;;;5051975;28;20021;-51
2023/01/05 11:53:50;;;;;;;9.82;4.20;;;10.60;99.90;;;;;;5052589;28;20040;-49
2023/01/05 11:56:36;;;;;;;9.00;4.00;;;10.60;99.90;;;;;;5050595;28;20033;-52
2023/01/05 11:59:28;;;;;;;7.65;3.83;;;10.60;99.90;;;;;;5051130;28;20025;-49
2023/01/05 12:02:33;;;;;;;10.82;3.92;;;10.60;99.90;;;;;;5050712;28;20437;-55
2023/01/05 12:05:30;;;;;;;8.27;3.65;;;10.50;99.90;;;;;;5050528;28;20036;-50
2023/01/05 12:08:36;;;;;;;8.60;3.65;;;10.50;99.90;;;;;;5050833;28;20027;-51
2023/01/05 12:11:23;;;;;;;9.18;4.50;;;10.60;99.90;;;;;;5053427;28;20385;-53
2023/01/05 12:14:33;;;;;;;12.32;4.07;;;10.60;99.90;;;;;;5051018;28;20501;-49
2023/01/05 12:17:32;;;;;;;10.32;4.20;;;10.70;99.90;;;;;;5050652;28;20029;-47
2023/01/05 12:20:39;;;;;;;9.55;4.30;;;10.60;99.90;;;;;;5051876;28;20393;-50
2023/01/05 12:24:00;;;;;;;11.05;3.75;;;10.70;99.90;;;;;;5051526;28;20111;-48
2023/01/05 12:27:18;;;;;;;7.90;4.45;;;10.60;99.90;;;;;;5050457;28;20025;-48
2023/01/05 12:30:42;;;;;;;5.60;3.33;;;10.60;99.90;;;;;;5050125;28;20503;-55
2023/01/05 12:33:52;;;;;;;8.85;4.35;;;10.60;99.90;;;;;;5051192;28;20060;-53
2023/01/05 12:36:58;;;;;;;8.60;3.95;;;10.50;99.90;;;;;;5050512;28;20025;-52
2023/01/05 12:39:53;;;;;;;10.52;3.85;;;10.40;99.90;;;;;;5050392;28;20104;-52
2023/01/05 12:43:23;;;;;;;8.68;3.78;;;10.30;99.90;;;;;;5050237;28;20037;-52
2023/01/05 12:46:35;;;;;;;12.10;4.22;;;10.30;99.90;;;;;;4988507;28;20534;-49
2023/01/05 12:49:41;;;;;;;9.15;4.30;;;10.40;99.90;;;;;;5050071;28;20123;-53
2023/01/05 12:52:33;;;;;;;11.32;4.63;;;10.40;99.90;;;;;;5049933;28;20017;-51
2023/01/05 12:55:25;;;;;;;12.10;4.15;;;10.40;99.90;;;;;;5050460;28;20061;-54
2023/01/05 12:58:34;;;;;;;12.73;4.65;;;10.30;99.90;;;;;;5050237;28;20017;-52
2023/01/05 13:01:27;;;;;;;15.50;4.63;;;10.40;99.90;;;;;;5050925;28;20408;-53
2023/01/05 13:04:44;;;;;;;12.02;5.03;;;10.30;99.90;;;;;;5050936;28;20114;-53
2023/01/05 13:07:53;;;;;;;9.43;5.07;;;10.40;99.90;;;;;;5051130;28;20028;-56
2023/01/05 13:10:50;;;;;;;13.18;4.97;;;10.30;99.90;;;;;;5029505;28;20033;-56
2023/01/05 13:13:53;;;;;;;11.23;5.00;;;10.40;99.90;;;;;;5049571;28;20025;-54
2023/01/05 13:17:01;;;;;;;11.20;5.30;;;10.40;99.90;;;;;;5051823;28;20029;-54
2023/01/05 13:19:51;;;;;;;13.52;5.65;;;10.50;99.90;;;;;;5048728;28;20029;-55
2023/01/05 13:22:39;;;;;;;12.23;4.90;;;10.50;99.90;;;;;;5050095;28;20091;-54
2023/01/05 13:25:29;;;;;;;14.65;4.82;;;10.50;99.90;;;;;;5051024;28;20500;-57
2023/01/05 13:28:20;;;;;;;13.75;5.13;;;10.30;99.90;;;;;;5050520;28;20025;-55
2023/01/05 13:31:42;;;;;;;11.93;4.47;;;10.40;99.90;;;;;;5049537;28;20029;-49
2023/01/05 13:34:40;;;;;;;12.95;4.82;;;10.60;99.90;;;;;;5049701;28;20036;-52
2023/01/05 13:37:50;;;;;;;8.63;4.20;;;10.60;99.90;;;;;;5049414;28;20021;-50
2023/01/05 13:41:03;;;;;;;12.05;5.05;;;10.50;99.90;;;;;;5050516;28;20057;-50
2023/01/05 13:44:40;;;;;;;11.15;4.70;;;10.50;99.90;;;;;;5049655;28;20041;-51
2023/01/05 13:47:41;;;;;;;6.82;4.18;;;10.60;99.90;;;;;;5050573;28;20025;-54
2023/01/05 13:50:49;;;;;;;9.68;4.28;;;10.60;99.90;;;;;;5050920;28;20026;-53
2023/01/05 13:53:38;;;;;;;11.18;4.15;;;10.50;99.90;;;;;;5050312;28;20021;-48
2023/01/05 13:56:26;;;;;;;10.77;4.03;;;10.50;99.90;;;;;;5048777;28;20113;-51
2023/01/05 13:59:32;;;;;;;8.88;4.32;;;10.40;99.90;;;;;;5051359;28;20124;-52
2023/01/05 14:02:38;;;;;;;7.78;3.28;;;10.50;99.90;;;;;;5054026;28;20024;-50
2023/01/05 14:05:48;;;;;;;7.80;3.20;;;10.40;99.90;;;;;;5054322;28;20386;-56
2023/01/05 14:08:37;;;;;;;7.50;3.50;;;10.30;99.90;;;;;;5053414;28;20104;-52
2023/01/05 14:11:25;;;;;;;6.45;3.55;;;10.30;99.90;;;;;;5052395;28;20021;-54
2023/01/05 14:14:26;;;;;;;7.85;3.60;;;10.40;99.90;;;;;;5054290;28;20114;-51
2023/01/05 14:17:12;;;;;;;8.82;3.42;;;10.40;99.90;;;;;;5052117;28;20025;-52
2023/01/05 14:19:58;;;;;;;7.03;3.55;;;10.40;99.90;;;;;;5053766;28;20025;-51
2023/01/05 14:22:44;;;;;;;8.77;4.03;;;10.40;99.90;;;;;;5052954;28;20037;-50
2023/01/05 14:25:39;;;;;;;9.90;3.70;;;10.50;99.90;;;;;;5053611;28;20434;-52
2023/01/05 14:28:32;;;;;;;7.68;3.50;;;10.40;99.90;;;;;;5052308;28;20029;-51
2023/01/05 14:31:34;;;;;;;11.52;4.10;;;10.30;99.90;;;;;;5053339;28;20090;-53
2023/01/05 14:34:22;;;;;;;8.05;3.60;;;10.40;99.90;;;;;;5051957;28;20017;-49
2023/01/05 14:37:21;;;;;;;6.97;3.60;;;10.40;99.90;;;;;;5052391;28;20037;-49
2023/01/05 14:40:32;;;;;;;9.25;4.18;;;10.50;99.90;;;;;;5052044;28;20033;-53
2023/01/05 14:43:32;;;;;;;11.10;3.80;;;10.50;99.90;;;;;;5052477;28;20573;-55
2023/01/05 14:46:19;;;;;;;8.15;4.53;;;10.30;99.90;;;;;;5053772;28;20040;-50
2023/01/05 14:49:16;;;;;;;5.95;2.97;;;10.40;99.90;;;;;;5053590;28;20076;-53
2023/01/05 14:52:05;;;;;;;6.10;3.20;;;10.30;99.90;;;;;;5051713;28;20404;-52
2023/01/05 14:54:54;;;;;;;7.07;2.80;;;10.40;99.90;;;;;;5052412;28;20029;-52
2023/01/05 14:57:49;;;;;;;8.50;2.83;;;10.30;99.90;;;;;;5052160;28;20060;-52
2023/01/05 15:00:35;;;;;;;;;;;10.30;99.90;;;;;;5053802;28;20079;-53
2023/01/05 15:03:59;;;;;;;;;;;10.30;99.90;;;;;;5054148;28;19909;-51
2023/01/05 15:06:51;;;;;;;5.75;2.75;;;10.30;99.90;;;;;;4992017;28;19909;-52
2023/01/05 15:09:55;;;;;;;4.47;2.80;;;10.30;99.90;;;;;;4992472;28;20050;-50
2023/01/05 15:12:44;;;;;;;5.35;2.78;;;10.30;99.90;;;;;;5054727;28;20537;-53
2023/01/05 15:15:53;;;;;;;4.15;2.80;;;10.40;99.90;;;;;;5052078;28;20032;-51
2023/01/05 15:19:03;;;;;;;4.72;3.15;;;10.40;99.90;;;;;;5053446;28;20377;-54
2023/01/05 15:22:22;;;;;;;3.85;2.63;;;10.40;99.90;;;;;;5051538;28;20509;-51
2023/01/05 15:25:40;;;;;;;4.60;3.00;;;10.20;99.90;;;;;;5052096;28;20025;-53
2023/01/05 15:28:32;;;;;;;6.30;2.90;;;10.30;99.90;;;;;;5052649;28;20051;-55